Time;durP1;ratioP1;P1;durP2;ratioP2;P2;SDS_P1;SDS_P2;PMS_P1;PMS_P2;Temp;Humidity;BMP_temperature;BMP_pressure;BME280_temperature;BME280_humidity;BME280_pressure;Samples;Min_cycle;Max_cycle;Signal;HPM_P1;HPM_P2
2023/01/30 00:01:29;;;;;;;18.43;12.77;;;-0.20;99.90;;;;;;5012116;28;20184;-71
2023/01/30 00:03:55;;;;;;;17.57;13.60;;;-0.20;99.90;;;;;;5018225;28;20276;-71
2023/01/30 00:06:21;;;;;;;16.57;11.00;;;-0.20;99.90;;;;;;5022525;28;20656;-71
2023/01/30 00:08:47;;;;;;;18.70;13.60;;;-0.20;99.90;;;;;;5012456;28;20561;-71
2023/01/30 00:11:14;;;;;;;11.97;8.90;;;-0.20;99.90;;;;;;5018717;28;20184;-71
2023/01/30 00:13:41;;;;;;;17.10;12.63;;;-0.20;99.90;;;;;;5018472;28;20197;-71
2023/01/30 00:16:08;;;;;;;16.07;13.87;;;-0.10;99.90;;;;;;5019611;28;20200;-72
2023/01/30 00:18:35;;;;;;;13.97;8.83;;;-0.20;99.90;;;;;;5017858;28;20174;-71
2023/01/30 00:21:03;;;;;;;18.00;12.07;;;-0.20;99.90;;;;;;5017242;28;20189;-71
2023/01/30 00:23:30;;;;;;;16.37;13.00;;;-0.20;99.90;;;;;;5015756;28;20181;-72
2023/01/30 00:25:56;;;;;;;14.90;11.50;;;-0.20;99.90;;;;;;5019105;28;20225;-72
2023/01/30 00:28:22;;;;;;;18.47;12.97;;;-0.10;99.90;;;;;;5018172;28;20270;-72
2023/01/30 00:30:49;;;;;;;13.27;10.03;;;-0.10;99.90;;;;;;5018107;28;20173;-71
2023/01/30 00:33:15;;;;;;;18.67;12.97;;;-0.10;99.90;;;;;;5020360;28;20239;-73
2023/01/30 00:35:46;;;;;;;16.17;13.27;;;-0.10;99.90;;;;;;5006591;28;20683;-71
2023/01/30 00:38:12;;;;;;;12.50;10.27;;;-0.20;99.90;;;;;;5013028;28;20177;-71
2023/01/30 00:40:38;;;;;;;4.90;4.50;;;-0.20;99.90;;;;;;5026438;28;20203;-73
2023/01/30 00:48:35;;;;;;;13.67;10.83;;;-0.20;99.90;;;;;;5017597;28;20235;-71
2023/01/30 00:51:00;;;;;;;14.73;10.00;;;-0.20;99.90;;;;;;5027912;28;20189;-70
2023/01/30 00:53:26;;;;;;;14.87;12.10;;;-0.20;99.90;;;;;;5011870;28;20236;-71
2023/01/30 00:55:52;;;;;;;15.07;12.70;;;-0.10;99.90;;;;;;5019126;28;20719;-71
2023/01/30 00:58:18;;;;;;;14.57;10.77;;;-0.20;99.90;;;;;;5024995;28;20177;-70
2023/01/30 01:00:44;;;;;;;15.07;12.53;;;-0.30;99.90;;;;;;5013075;28;20181;-70
2023/01/30 01:03:09;;;;;;;12.67;8.63;;;-0.20;99.90;;;;;;5017919;28;20530;-71
2023/01/30 01:05:35;;;;;;;16.03;13.10;;;-0.20;99.90;;;;;;5021253;28;20224;-71
2023/01/30 01:08:01;;;;;;;17.83;13.20;;;-0.20;99.90;;;;;;5018044;28;20189;-73
2023/01/30 01:10:26;;;;;;;13.33;11.30;;;-0.30;99.90;;;;;;5008580;28;20564;-72
2023/01/30 01:12:52;;;;;;;17.07;11.63;;;-0.40;99.90;;;;;;5017716;28;20209;-71
2023/01/30 01:15:19;;;;;;;15.70;11.77;;;-0.40;99.90;;;;;;5016875;28;20197;-71
2023/01/30 01:17:45;;;;;;;13.67;11.50;;;-0.30;99.90;;;;;;5015030;28;20760;-72
2023/01/30 01:20:11;;;;;;;13.17;9.93;;;-0.40;99.90;;;;;;5027385;28;20260;-71
2023/01/30 01:22:37;;;;;;;15.77;12.23;;;-0.40;99.90;;;;;;5014934;28;20205;-71
2023/01/30 01:25:03;;;;;;;17.17;13.03;;;-0.30;99.90;;;;;;5017155;28;20205;-71
2023/01/30 01:27:28;;;;;;;18.23;13.30;;;-0.30;99.90;;;;;;5015083;28;20288;-71
2023/01/30 01:29:54;;;;;;;13.37;9.13;;;-0.40;99.90;;;;;;5018166;28;20185;-71
2023/01/30 01:32:20;;;;;;;12.63;10.13;;;-0.40;99.90;;;;;;5020917;28;20592;-72
2023/01/30 01:34:46;;;;;;;10.17;7.30;;;-0.40;99.90;;;;;;5005395;28;20208;-71
2023/01/30 01:37:11;;;;;;;16.93;13.13;;;-0.30;99.90;;;;;;5021882;28;20651;-72
2023/01/30 01:42:24;;;;;;;16.40;12.57;;;-0.30;99.90;;;;;;5014970;28;20664;-73
2023/01/30 01:45:22;;;;;;;16.33;12.27;;;-0.30;99.90;;;;;;5013660;28;20192;-74
2023/01/30 01:48:10;;;;;;;13.13;9.70;;;-0.40;99.90;;;;;;5021598;28;20695;-72
2023/01/30 01:50:48;;;;;;;18.87;14.07;;;-0.60;99.90;;;;;;5013876;28;20177;-72
2023/01/30 01:53:18;;;;;;;18.00;13.47;;;-0.50;99.90;;;;;;5024731;28;20198;-71
2023/01/30 01:55:46;;;;;;;16.80;12.03;;;-0.60;99.90;;;;;;5004523;28;20605;-71
2023/01/30 01:58:21;;;;;;;20.80;14.23;;;-0.50;99.90;;;;;;5020394;28;20188;-72
2023/01/30 02:00:48;;;;;;;14.77;11.97;;;-0.50;99.90;;;;;;5012545;28;20177;-72
2023/01/30 02:03:22;;;;;;;13.70;10.30;;;-0.50;99.90;;;;;;5020876;28;20181;-71
2023/01/30 02:05:50;;;;;;;16.03;13.23;;;-0.40;99.90;;;;;;5018988;28;20226;-72
2023/01/30 02:08:20;;;;;;;17.50;13.60;;;-0.40;99.90;;;;;;5023843;28;20188;-72
2023/01/30 02:11:10;;;;;;;16.17;11.60;;;-0.40;99.90;;;;;;5011792;28;20177;-72
2023/01/30 02:13:36;;;;;;;10.47;8.60;;;-0.20;99.90;;;;;;5018459;28;20555;-71
2023/01/30 02:16:04;;;;;;;15.37;12.07;;;-0.20;99.90;;;;;;5016678;28;20209;-71
2023/01/30 02:18:33;;;;;;;17.50;11.43;;;-0.20;99.90;;;;;;5024052;28;20208;-72
2023/01/30 02:21:23;;;;;;;14.63;10.50;;;-0.20;99.90;;;;;;5021470;28;20182;-72
2023/01/30 02:24:11;;;;;;;12.60;8.47;;;-0.20;99.90;;;;;;5006630;28;20914;-75
2023/01/30 02:26:48;;;;;;;17.77;10.97;;;-0.10;99.90;;;;;;5019488;28;20240;-74
2023/01/30 02:29:29;;;;;;;11.20;8.37;;;-0.20;99.90;;;;;;5023909;28;20185;-74
2023/01/30 02:32:13;;;;;;;16.77;13.00;;;-0.20;99.90;;;;;;5008967;28;20200;-74
2023/01/30 02:34:57;;;;;;;11.93;8.53;;;-0.20;99.90;;;;;;5018207;28;20258;-72
2023/01/30 02:37:54;;;;;;;15.57;11.60;;;-0.30;99.90;;;;;;5008127;28;20181;-72
2023/01/30 02:40:40;;;;;;;14.83;10.47;;;-0.30;99.90;;;;;;5016648;28;20620;-72
2023/01/30 02:43:21;;;;;;;10.47;8.93;;;-0.20;99.90;;;;;;5011788;28;20199;-72
2023/01/30 02:45:56;;;;;;;10.10;7.83;;;-0.10;99.90;;;;;;5018022;28;20200;-71
2023/01/30 02:48:28;;;;;;;11.20;8.93;;;-0.10;99.90;;;;;;5019621;28;20606;-72
2023/01/30 02:51:02;;;;;;;12.77;9.57;;;-0.10;99.90;;;;;;5018899;28;20223;-72
2023/01/30 02:53:34;;;;;;;12.33;9.23;;;-0.10;99.90;;;;;;5019754;28;20215;-74
2023/01/30 02:56:00;;;;;;;12.80;10.50;;;-0.10;99.90;;;;;;5022939;28;20197;-71
2023/01/30 02:58:32;;;;;;;13.97;10.37;;;-0.20;99.90;;;;;;5015178;28;20189;-71
2023/01/30 03:01:53;;;;;;;8.83;6.77;;;-0.10;99.90;;;;;;5013432;28;20169;-73
2023/01/30 03:04:39;;;;;;;13.53;11.30;;;-0.10;99.90;;;;;;5006877;28;20204;-72
2023/01/30 03:07:23;;;;;;;8.03;7.07;;;-0.10;99.90;;;;;;5012473;28;20209;-70
2023/01/30 03:10:07;;;;;;;9.47;8.33;;;-0.10;99.90;;;;;;5008250;28;20173;-72
2023/01/30 03:12:55;;;;;;;13.83;11.33;;;-0.10;99.90;;;;;;5020286;28;20192;-71
2023/01/30 03:16:11;;;;;;;10.50;8.33;;;-0.10;99.90;;;;;;5022390;28;20193;-73
2023/01/30 03:18:40;;;;;;;13.50;10.83;;;0.00;99.90;;;;;;4996972;28;20727;-73
2023/01/30 03:21:07;;;;;;;13.80;11.30;;;0.00;99.90;;;;;;5000998;28;20723;-74
2023/01/30 03:23:33;;;;;;;14.33;11.50;;;-0.10;99.90;;;;;;5008601;28;20660;-71
2023/01/30 03:25:59;;;;;;;15.63;10.00;;;-0.30;99.90;;;;;;5008772;28;20205;-71
2023/01/30 03:28:26;;;;;;;10.13;8.40;;;-0.40;99.90;;;;;;5018919;28;20667;-71
2023/01/30 03:30:51;;;;;;;16.47;10.77;;;-0.40;99.90;;;;;;5010490;28;20217;-76
2023/01/30 03:33:17;;;;;;;13.27;10.47;;;-0.30;99.90;;;;;;5011581;28;20232;-75
2023/01/30 03:35:43;;;;;;;13.40;11.20;;;-0.40;99.90;;;;;;5019542;28;20256;-72
2023/01/30 03:38:09;;;;;;;9.33;8.13;;;-0.50;99.90;;;;;;5016890;28;20184;-72
2023/01/30 03:40:35;;;;;;;14.50;11.90;;;-0.50;99.90;;;;;;5018541;28;20554;-71
2023/01/30 03:43:00;;;;;;;13.63;10.87;;;-0.60;99.90;;;;;;5011784;28;20196;-71
2023/01/30 03:45:26;;;;;;;16.63;12.67;;;-0.60;99.90;;;;;;5017723;28;20699;-71
2023/01/30 03:47:51;;;;;;;12.30;9.77;;;-0.60;99.90;;;;;;5015847;28;20200;-71
2023/01/30 03:50:17;;;;;;;14.33;11.23;;;-0.50;99.90;;;;;;5020839;28;20184;-72
2023/01/30 03:52:42;;;;;;;14.90;10.23;;;-0.40;99.90;;;;;;5018818;28;20645;-72
2023/01/30 03:55:09;;;;;;;13.80;10.90;;;-0.30;99.90;;;;;;5014976;28;20323;-73
2023/01/30 03:57:35;;;;;;;15.37;12.00;;;-0.30;99.90;;;;;;5014998;28;20204;-72
2023/01/30 04:00:00;;;;;;;11.97;8.77;;;-0.30;99.90;;;;;;5018198;28;20603;-72
2023/01/30 04:02:26;;;;;;;11.20;9.63;;;-0.30;99.90;;;;;;5015812;28;20181;-72
2023/01/30 04:04:52;;;;;;;16.33;11.30;;;-0.20;99.90;;;;;;5016064;28;20742;-72
2023/01/30 04:07:18;;;;;;;13.87;10.33;;;-0.20;99.90;;;;;;5011854;28;20196;-71
2023/01/30 04:09:43;;;;;;;16.73;11.57;;;-0.20;99.90;;;;;;5020952;28;20173;-71
2023/01/30 04:12:09;;;;;;;13.20;9.87;;;-0.30;99.90;;;;;;5020587;28;20176;-72
2023/01/30 04:14:35;;;;;;;12.13;9.80;;;-0.30;99.90;;;;;;5022779;28;20209;-72
2023/01/30 04:17:00;;;;;;;14.53;11.87;;;-0.30;99.90;;;;;;5012909;28;20196;-71
2023/01/30 04:19:26;;;;;;;13.00;11.47;;;-0.30;99.90;;;;;;5019996;28;20553;-71
2023/01/30 04:21:51;;;;;;;15.87;11.63;;;-0.40;99.90;;;;;;5012095;28;20228;-71
2023/01/30 04:24:17;;;;;;;16.43;10.97;;;-0.50;99.90;;;;;;5017012;28;20219;-72
2023/01/30 04:26:42;;;;;;;14.90;11.47;;;-0.60;99.90;;;;;;5022527;28;20181;-71
2023/01/30 04:29:08;;;;;;;13.57;11.07;;;-0.60;99.90;;;;;;5016893;28;20215;-71
2023/01/30 04:31:34;;;;;;;15.47;11.73;;;-0.70;99.90;;;;;;5014436;28;20672;-71
2023/01/30 04:33:59;;;;;;;12.00;9.80;;;-0.70;99.90;;;;;;5006993;28;20631;-71
2023/01/30 04:36:25;;;;;;;15.63;11.13;;;-0.60;99.90;;;;;;5017362;28;20189;-71
2023/01/30 04:38:50;;;;;;;11.03;8.53;;;-0.50;99.90;;;;;;5016166;28;20188;-71
2023/01/30 04:41:16;;;;;;;10.47;8.23;;;-0.40;99.90;;;;;;5017141;28;20655;-74
2023/01/30 04:43:42;;;;;;;11.37;7.93;;;-0.30;99.90;;;;;;5013726;28;20203;-75
2023/01/30 04:46:07;;;;;;;12.70;8.47;;;-0.20;99.90;;;;;;5021852;28;20177;-73
2023/01/30 04:48:33;;;;;;;14.97;10.73;;;-0.20;99.90;;;;;;5019976;28;20608;-73
2023/01/30 04:50:58;;;;;;;13.33;10.33;;;-0.20;99.90;;;;;;5019100;28;20181;-73
2023/01/30 04:53:25;;;;;;;13.17;11.27;;;-0.20;99.90;;;;;;5010413;28;20208;-74
2023/01/30 04:55:50;;;;;;;14.47;12.30;;;-0.20;99.90;;;;;;5013913;28;20200;-71
2023/01/30 04:58:20;;;;;;;13.97;11.43;;;-0.30;99.90;;;;;;5011269;28;20664;-72
2023/01/30 05:00:46;;;;;;;16.20;10.93;;;-0.30;99.90;;;;;;5021917;28;20180;-76
2023/01/30 05:03:12;;;;;;;15.80;12.27;;;-0.30;99.90;;;;;;5014005;28;20249;-73
2023/01/30 05:05:38;;;;;;;11.10;7.80;;;-0.30;99.90;;;;;;5013224;28;20279;-73
2023/01/30 05:08:04;;;;;;;11.37;9.53;;;-0.20;99.90;;;;;;5015098;28;20268;-74
2023/01/30 05:10:29;;;;;;;9.63;7.60;;;-0.20;99.90;;;;;;5017198;28;20184;-74
2023/01/30 05:12:55;;;;;;;9.63;8.27;;;-0.20;99.90;;;;;;5014313;28;20205;-74
2023/01/30 05:15:20;;;;;;;9.97;7.60;;;-0.10;99.90;;;;;;5007621;28;20201;-74
2023/01/30 05:17:46;;;;;;;16.93;12.87;;;0.00;99.90;;;;;;5012273;28;20181;-74
2023/01/30 05:20:13;;;;;;;14.80;11.40;;;-0.10;99.90;;;;;;5013275;28;20189;-73
2023/01/30 05:22:38;;;;;;;11.30;8.83;;;-0.10;99.90;;;;;;5014387;28;20181;-74
2023/01/30 05:25:05;;;;;;;13.27;9.70;;;-0.20;99.90;;;;;;5014514;28;20201;-73
2023/01/30 05:27:30;;;;;;;8.33;7.17;;;-0.20;99.90;;;;;;5015663;28;20699;-73
2023/01/30 05:29:56;;;;;;;12.07;9.23;;;-0.20;99.90;;;;;;5014223;28;20181;-74
2023/01/30 05:32:22;;;;;;;17.10;11.93;;;-0.10;99.90;;;;;;5014532;28;20220;-73
2023/01/30 05:34:48;;;;;;;18.73;12.00;;;-0.10;99.90;;;;;;5014856;28;20225;-74
2023/01/30 05:37:14;;;;;;;12.20;9.40;;;-0.10;99.90;;;;;;5014532;28;20227;-74
2023/01/30 05:39:40;;;;;;;15.87;9.13;;;-0.10;99.90;;;;;;5016056;28;20173;-72
2023/01/30 05:42:05;;;;;;;17.13;12.90;;;-0.20;99.90;;;;;;5014871;28;20280;-71
2023/01/30 05:44:31;;;;;;;17.53;12.87;;;-0.10;99.90;;;;;;5017044;28;20640;-71
2023/01/30 05:46:57;;;;;;;16.10;12.20;;;-0.20;99.90;;;;;;5016800;28;20189;-74
2023/01/30 05:49:22;;;;;;;15.63;10.53;;;-0.20;99.90;;;;;;5022413;28;20264;-74
2023/01/30 05:51:48;;;;;;;17.47;12.87;;;-0.30;99.90;;;;;;5015216;28;20228;-75
2023/01/30 05:54:14;;;;;;;15.60;11.47;;;-0.30;99.90;;;;;;5015371;28;20213;-76
2023/01/30 05:56:40;;;;;;;17.07;11.97;;;-0.30;99.90;;;;;;5007404;28;20178;-74
2023/01/30 05:59:05;;;;;;;18.30;13.83;;;-0.30;99.90;;;;;;5022981;28;20195;-75
2023/01/30 06:01:31;;;;;;;15.77;11.13;;;-0.30;99.90;;;;;;5015262;28;20632;-74
2023/01/30 06:03:57;;;;;;;15.47;10.17;;;-0.30;99.90;;;;;;5019881;28;20243;-74
2023/01/30 06:06:23;;;;;;;16.47;13.33;;;-0.30;99.90;;;;;;5007089;28;20251;-75
2023/01/30 06:08:54;;;;;;;17.50;13.43;;;-0.40;99.90;;;;;;5020248;28;20177;-75
2023/01/30 06:11:20;;;;;;;14.37;10.83;;;-0.40;99.90;;;;;;5016414;28;20519;-75
2023/01/30 06:13:45;;;;;;;14.93;10.43;;;-0.30;99.90;;;;;;5019973;28;20200;-74
2023/01/30 06:16:13;;;;;;;14.03;11.00;;;-0.40;99.90;;;;;;5010560;28;20262;-75
2023/01/30 06:18:39;;;;;;;14.90;11.77;;;-0.40;99.90;;;;;;5021726;28;20185;-72
2023/01/30 06:21:05;;;;;;;12.90;10.37;;;-0.50;99.90;;;;;;5011779;28;20238;-72
2023/01/30 06:23:31;;;;;;;13.53;9.80;;;-0.40;99.90;;;;;;5023389;28;20256;-72
2023/01/30 06:25:57;;;;;;;16.10;13.73;;;-0.40;99.90;;;;;;5013642;28;20204;-74
2023/01/30 06:28:24;;;;;;;15.50;11.27;;;-0.40;99.90;;;;;;5018600;28;20193;-74
2023/01/30 06:30:50;;;;;;;15.07;12.73;;;-0.30;99.90;;;;;;5018894;28;20185;-75
2023/01/30 06:33:16;;;;;;;15.30;11.93;;;-0.20;99.90;;;;;;5015018;28;20607;-75
2023/01/30 06:35:42;;;;;;;16.93;12.57;;;-0.30;99.90;;;;;;5016764;28;20704;-75
2023/01/30 06:38:10;;;;;;;15.37;11.07;;;-0.30;99.90;;;;;;5012403;28;20208;-75
2023/01/30 06:40:36;;;;;;;18.20;13.13;;;-0.30;99.90;;;;;;5020857;28;20199;-75
2023/01/30 06:43:02;;;;;;;13.63;10.87;;;-0.30;99.90;;;;;;5015741;28;20657;-75
2023/01/30 06:45:27;;;;;;;13.87;9.57;;;-0.30;99.90;;;;;;5021094;28;20203;-74
2023/01/30 06:47:54;;;;;;;16.53;13.03;;;-0.20;99.90;;;;;;5010156;28;20263;-74
2023/01/30 06:50:25;;;;;;;14.57;10.50;;;-0.20;99.90;;;;;;5016076;28;20280;-75
2023/01/30 06:52:51;;;;;;;18.50;11.03;;;-0.20;99.90;;;;;;5008516;28;20176;-76
2023/01/30 06:55:19;;;;;;;13.23;8.57;;;-0.10;99.90;;;;;;5017105;28;20204;-75
2023/01/30 06:57:45;;;;;;;10.03;7.83;;;-0.10;99.90;;;;;;5015744;28;20170;-75
2023/01/30 07:00:15;;;;;;;14.57;12.03;;;0.00;99.90;;;;;;5014401;28;20195;-72
2023/01/30 07:02:41;;;;;;;12.80;10.50;;;0.00;99.90;;;;;;5012023;28;20199;-74
2023/01/30 07:05:07;;;;;;;16.20;11.87;;;0.00;99.90;;;;;;5018619;28;20279;-72
2023/01/30 07:07:33;;;;;;;15.27;9.97;;;0.00;99.90;;;;;;5019162;28;20559;-73
2023/01/30 07:09:59;;;;;;;17.10;12.17;;;0.00;99.90;;;;;;5018558;28;20177;-75
2023/01/30 07:12:26;;;;;;;12.43;8.10;;;0.00;99.90;;;;;;5009174;28;20234;-74
2023/01/30 07:14:52;;;;;;;17.30;11.60;;;0.10;99.90;;;;;;5012188;28;20228;-71
2023/01/30 07:17:18;;;;;;;13.67;10.57;;;0.10;99.90;;;;;;5013422;28;20223;-73
2023/01/30 07:19:44;;;;;;;14.90;12.43;;;0.20;99.90;;;;;;5010466;28;20264;-72
2023/01/30 07:22:10;;;;;;;12.30;10.77;;;0.20;99.90;;;;;;5009340;28;20639;-72
2023/01/30 07:24:37;;;;;;;15.00;10.37;;;0.20;99.90;;;;;;5013402;28;20205;-72
2023/01/30 07:27:03;;;;;;;16.10;12.87;;;0.30;99.90;;;;;;5013044;28;20227;-73
2023/01/30 07:29:28;;;;;;;14.70;10.13;;;0.30;99.90;;;;;;5014038;28;20209;-74
2023/01/30 07:31:54;;;;;;;8.60;7.03;;;0.40;99.90;;;;;;5004699;28;20268;-74
2023/01/30 07:34:20;;;;;;;10.77;8.97;;;0.30;99.90;;;;;;5014662;28;20254;-74
2023/01/30 07:36:46;;;;;;;12.47;8.50;;;0.40;99.90;;;;;;5017367;28;20673;-73
2023/01/30 07:39:12;;;;;;;14.23;8.93;;;0.50;99.90;;;;;;5010864;28;20216;-74
2023/01/30 07:41:37;;;;;;;14.03;10.20;;;0.50;99.90;;;;;;5013295;28;20188;-73
2023/01/30 07:44:03;;;;;;;11.47;8.77;;;0.50;99.90;;;;;;5008948;28;20224;-73
2023/01/30 07:46:33;;;;;;;5.93;5.33;;;0.50;99.90;;;;;;5007930;28;20273;-73
2023/01/30 07:49:00;;;;;;;14.93;11.30;;;0.60;99.90;;;;;;5014100;28;20189;-73
2023/01/30 07:51:27;;;;;;;15.97;11.53;;;0.60;99.90;;;;;;5011877;28;20196;-73
2023/01/30 07:53:52;;;;;;;10.53;8.33;;;0.70;99.90;;;;;;5011900;28;20309;-70
2023/01/30 07:56:20;;;;;;;11.40;9.40;;;0.90;99.90;;;;;;5014135;28;20272;-70
2023/01/30 07:58:46;;;;;;;9.03;7.17;;;0.90;99.90;;;;;;5011440;28;20185;-70
2023/01/30 08:01:12;;;;;;;10.67;8.80;;;1.00;99.90;;;;;;5010409;28;20559;-71
2023/01/30 08:03:37;;;;;;;16.00;13.57;;;1.00;99.90;;;;;;5013487;28;20189;-70
2023/01/30 08:06:03;;;;;;;14.53;11.10;;;1.10;99.90;;;;;;5017144;28;20247;-71
2023/01/30 08:08:29;;;;;;;16.33;11.17;;;1.00;99.90;;;;;;5011307;28;20191;-71
2023/01/30 08:10:54;;;;;;;11.73;8.07;;;1.00;99.90;;;;;;5008488;28;20648;-71
2023/01/30 08:13:20;;;;;;;14.50;9.90;;;1.20;99.90;;;;;;5017544;28;20288;-70
2023/01/30 08:15:45;;;;;;;13.67;9.87;;;1.30;99.90;;;;;;5010842;28;20675;-71
2023/01/30 08:18:11;;;;;;;14.93;10.90;;;1.30;99.90;;;;;;5018379;28;20184;-71
2023/01/30 08:20:36;;;;;;;14.43;11.37;;;1.40;99.90;;;;;;5009373;28;20177;-71
2023/01/30 08:23:02;;;;;;;14.70;10.73;;;1.40;99.90;;;;;;5005631;28;20194;-71
2023/01/30 08:25:29;;;;;;;15.47;11.93;;;1.20;99.90;;;;;;5004548;28;20217;-71
2023/01/30 08:27:54;;;;;;;10.17;8.90;;;1.30;99.90;;;;;;5014423;28;20275;-71
2023/01/30 08:30:21;;;;;;;10.03;7.87;;;1.40;99.90;;;;;;5016996;28;20193;-71
2023/01/30 08:32:47;;;;;;;14.63;9.33;;;1.60;99.90;;;;;;5027063;28;20584;-71
2023/01/30 08:35:13;;;;;;;8.17;7.13;;;1.70;99.90;;;;;;5016465;28;20208;-70
2023/01/30 08:37:39;;;;;;;10.00;9.00;;;1.70;99.90;;;;;;5024700;28;20180;-70
2023/01/30 08:40:06;;;;;;;12.20;10.17;;;1.80;99.90;;;;;;5018320;28;20560;-70
2023/01/30 08:42:32;;;;;;;13.20;10.03;;;1.80;99.90;;;;;;5013532;28;20607;-70
2023/01/30 08:44:57;;;;;;;13.70;9.20;;;1.90;99.90;;;;;;5009229;28;20296;-71
2023/01/30 08:47:23;;;;;;;13.53;10.63;;;1.90;99.90;;;;;;5012375;28;20193;-70
2023/01/30 08:49:50;;;;;;;15.37;10.80;;;2.00;99.90;;;;;;5010583;28;20593;-71
2023/01/30 08:52:16;;;;;;;13.57;9.90;;;2.00;99.90;;;;;;5017179;28;20208;-71
2023/01/30 08:54:41;;;;;;;7.20;6.17;;;2.20;99.90;;;;;;5033939;28;20676;-71
2023/01/30 08:57:07;;;;;;;14.87;9.70;;;2.40;99.90;;;;;;5014370;28;20213;-72
2023/01/30 08:59:32;;;;;;;13.02;9.85;;;2.60;99.90;;;;;;5019273;28;20200;-71
2023/01/30 09:01:58;;;;;;;11.13;7.67;;;2.60;99.90;;;;;;5012425;28;20567;-71
2023/01/30 09:04:25;;;;;;;9.33;7.77;;;2.60;99.90;;;;;;5010987;28;20288;-72
2023/01/30 09:06:51;;;;;;;10.60;8.10;;;2.90;99.90;;;;;;5014351;28;20247;-71
2023/01/30 09:09:16;;;;;;;9.23;7.30;;;3.10;99.90;;;;;;5019875;28;20627;-71
2023/01/30 09:11:42;;;;;;;13.57;9.63;;;3.30;99.90;;;;;;5021373;28;20275;-71
2023/01/30 09:14:08;;;;;;;14.05;9.90;;;3.50;99.90;;;;;;5016509;28;20208;-71
2023/01/30 09:16:33;;;;;;;9.68;7.55;;;3.80;99.90;;;;;;5013140;28;20198;-71
2023/01/30 09:18:59;;;;;;;12.73;9.02;;;4.30;99.90;;;;;;5022822;28;20255;-71
2023/01/30 09:21:25;;;;;;;10.20;9.07;;;4.60;99.90;;;;;;5019328;28;20174;-71
2023/01/30 09:23:50;;;;;;;11.27;8.55;;;4.90;99.90;;;;;;5015161;28;20232;-71
2023/01/30 09:26:16;;;;;;;11.05;7.90;;;5.00;99.90;;;;;;5017841;28;20173;-71
2023/01/30 09:28:42;;;;;;;15.82;12.07;;;5.10;99.90;;;;;;5023767;28;20197;-71
2023/01/30 09:31:07;;;;;;;7.07;6.20;;;5.20;99.90;;;;;;5015992;28;20192;-72
2023/01/30 09:33:33;;;;;;;11.85;8.90;;;5.20;99.90;;;;;;5012355;28;20197;-71
2023/01/30 09:35:58;;;;;;;10.18;7.88;;;5.30;99.90;;;;;;5022373;28;20700;-71
2023/01/30 09:38:25;;;;;;;9.82;8.07;;;5.00;99.90;;;;;;5021616;28;20711;-71
2023/01/30 09:41:07;;;;;;;12.18;9.00;;;4.70;99.90;;;;;;5016402;28;20189;-71
2023/01/30 09:43:55;;;;;;;11.38;8.50;;;4.40;99.90;;;;;;5009881;28;20713;-71
2023/01/30 09:46:46;;;;;;;10.70;9.40;;;4.20;99.90;;;;;;5017450;28;20231;-71
2023/01/30 09:49:29;;;;;;;9.63;7.45;;;4.10;99.90;;;;;;5012348;28;20313;-71
2023/01/30 09:52:13;;;;;;;12.65;9.18;;;4.10;99.90;;;;;;5016641;28;20203;-71
2023/01/30 09:54:43;;;;;;;11.50;9.30;;;4.00;99.90;;;;;;5022019;28;20267;-71
2023/01/30 09:57:24;;;;;;;9.65;8.75;;;3.80;99.90;;;;;;5016594;28;20222;-71
2023/01/30 10:00:03;;;;;;;15.37;12.00;;;3.60;99.90;;;;;;5017061;28;20568;-72
2023/01/30 10:02:46;;;;;;;13.37;9.47;;;3.50;99.90;;;;;;5017006;28;20184;-75
2023/01/30 10:05:12;;;;;;;8.93;6.67;;;3.50;99.90;;;;;;5014152;28;20278;-72
2023/01/30 10:07:52;;;;;;;12.07;10.87;;;3.30;99.90;;;;;;5014275;28;20652;-72
2023/01/30 10:10:59;;;;;;;10.03;7.50;;;3.20;99.90;;;;;;5019031;28;20666;-72
2023/01/30 10:13:43;;;;;;;10.50;8.27;;;3.00;99.90;;;;;;5013992;28;20200;-72
2023/01/30 10:16:46;;;;;;;10.97;9.03;;;2.90;99.90;;;;;;5018963;28;20176;-72
2023/01/30 10:19:21;;;;;;;7.03;5.43;;;3.00;99.90;;;;;;5015962;28;20195;-72
2023/01/30 10:22:18;;;;;;;8.03;6.20;;;2.90;99.90;;;;;;5012639;28;20173;-71
2023/01/30 10:25:00;;;;;;;8.40;6.93;;;2.70;99.90;;;;;;5019896;28;20702;-72
2023/01/30 10:27:29;;;;;;;12.77;9.60;;;2.60;99.90;;;;;;5008850;28;20195;-73
2023/01/30 10:29:59;;;;;;;9.50;8.50;;;2.50;99.90;;;;;;5013796;28;20227;-73
2023/01/30 10:32:49;;;;;;;12.53;8.93;;;2.40;99.90;;;;;;5014697;28;20193;-74
2023/01/30 10:35:21;;;;;;;10.73;8.10;;;2.40;99.90;;;;;;5004970;28;20198;-70
2023/01/30 10:38:16;;;;;;;9.00;7.13;;;2.40;99.90;;;;;;5013224;28;20197;-71
2023/01/30 10:41:02;;;;;;;9.37;7.57;;;2.40;99.90;;;;;;5009193;28;20656;-71
2023/01/30 10:43:33;;;;;;;9.47;6.53;;;2.50;99.90;;;;;;5019727;28;20652;-71
2023/01/30 10:46:05;;;;;;;7.25;6.53;;;2.50;99.90;;;;;;5015226;28;20249;-71
2023/01/30 10:48:53;;;;;;;10.38;7.70;;;2.60;99.90;;;;;;5018070;28;20725;-71
2023/01/30 10:51:29;;;;;;;8.32;6.22;;;2.60;99.90;;;;;;5009264;28;20180;-72
2023/01/30 10:54:13;;;;;;;8.32;6.82;;;2.70;99.90;;;;;;5013620;28;20205;-72
2023/01/30 10:56:40;;;;;;;6.70;5.80;;;2.80;99.90;;;;;;5023686;28;20179;-71
2023/01/30 10:59:47;;;;;;;9.10;7.33;;;2.70;99.90;;;;;;5019742;28;20657;-71
2023/01/30 11:02:39;;;;;;;8.60;6.83;;;2.60;99.90;;;;;;5016184;28;20569;-72
2023/01/30 11:05:20;;;;;;;13.23;8.70;;;2.60;99.90;;;;;;5009884;28;20204;-71
2023/01/30 11:07:48;;;;;;;8.20;6.93;;;2.40;99.90;;;;;;5010995;28;20188;-71
2023/01/30 11:10:23;;;;;;;11.83;9.20;;;2.40;99.90;;;;;;5017046;28;20174;-72
2023/01/30 11:13:09;;;;;;;9.70;7.03;;;2.40;99.90;;;;;;5023403;28;20717;-71
2023/01/30 11:15:43;;;;;;;7.37;6.67;;;2.30;99.90;;;;;;5009469;28;20221;-71
2023/01/30 11:18:09;;;;;;;7.23;6.17;;;2.30;99.90;;;;;;5006641;28;20184;-71
2023/01/30 11:20:40;;;;;;;8.57;7.57;;;2.20;99.90;;;;;;5008765;28;20652;-71
2023/01/30 11:23:22;;;;;;;11.53;9.03;;;2.10;99.90;;;;;;5005504;28;20193;-71
2023/01/30 11:25:51;;;;;;;9.70;7.25;;;2.00;99.90;;;;;;5012928;28;20672;-71
2023/01/30 11:28:18;;;;;;;6.80;6.10;;;1.90;99.90;;;;;;5013768;28;20192;-70
2023/01/30 11:30:51;;;;;;;8.27;6.30;;;2.00;99.90;;;;;;5003466;28;20185;-71
2023/01/30 11:33:17;;;;;;;11.00;8.53;;;1.90;99.90;;;;;;5024445;28;20197;-72
2023/01/30 11:35:57;;;;;;;10.83;7.77;;;1.90;99.90;;;;;;5006811;28;20208;-71
2023/01/30 11:38:26;;;;;;;9.10;6.77;;;1.90;99.90;;;;;;5005211;28;20319;-71
2023/01/30 11:41:21;;;;;;;6.40;5.80;;;2.00;99.90;;;;;;5009985;28;20263;-72
2023/01/30 11:43:47;;;;;;;9.40;6.70;;;2.10;99.90;;;;;;5004079;28;20313;-72
2023/01/30 11:46:19;;;;;;;11.17;7.33;;;2.20;99.90;;;;;;5010453;28;20659;-72
2023/01/30 11:48:52;;;;;;;9.43;7.40;;;2.10;99.90;;;;;;5009830;28;20181;-71
2023/01/30 11:51:20;;;;;;;7.13;6.03;;;2.10;99.90;;;;;;5007691;28;20176;-71
2023/01/30 11:54:19;;;;;;;10.60;7.63;;;2.00;99.90;;;;;;5011814;28;20635;-71
2023/01/30 11:56:52;;;;;;;9.10;6.60;;;2.00;99.90;;;;;;4998107;28;20622;-73
2023/01/30 11:59:24;;;;;;;7.90;5.87;;;2.00;99.90;;;;;;5009929;28;20675;-73
2023/01/30 12:01:51;;;;;;;7.13;5.60;;;1.90;99.90;;;;;;5019538;28;20292;-74
2023/01/30 12:04:19;;;;;;;10.47;6.73;;;1.80;99.90;;;;;;5020020;28;20200;-75
2023/01/30 12:06:44;;;;;;;6.20;5.20;;;1.70;99.90;;;;;;5016137;28;20174;-73
2023/01/30 12:09:33;;;;;;;10.40;8.00;;;1.60;99.90;;;;;;5016010;28;20669;-75
2023/01/30 12:11:58;;;;;;;5.07;4.57;;;1.50;99.90;;;;;;5011948;28;20722;-74
2023/01/30 12:14:37;;;;;;;7.83;6.53;;;1.40;99.90;;;;;;5012442;28;20251;-74
2023/01/30 12:17:21;;;;;;;10.10;7.07;;;1.40;99.90;;;;;;5013136;28;20263;-74
2023/01/30 12:19:59;;;;;;;12.83;8.23;;;1.40;99.90;;;;;;5003004;28;20675;-74
2023/01/30 12:22:46;;;;;;;8.63;6.90;;;1.50;99.90;;;;;;5012267;28;20209;-73
2023/01/30 12:25:21;;;;;;;7.77;5.93;;;1.40;99.90;;;;;;5008602;28;20199;-74
2023/01/30 12:28:11;;;;;;;6.80;5.17;;;1.50;99.90;;;;;;5020161;28;20177;-73
2023/01/30 12:30:46;;;;;;;7.13;5.47;;;1.50;99.90;;;;;;5014205;28;20269;-73
2023/01/30 12:33:15;;;;;;;10.73;7.00;;;1.50;99.90;;;;;;5009367;28;20208;-73
2023/01/30 12:35:51;;;;;;;9.17;6.13;;;1.50;99.90;;;;;;5011811;28;20193;-74
2023/01/30 12:38:46;;;;;;;9.60;7.27;;;1.50;99.90;;;;;;5010213;28;20718;-74
2023/01/30 12:41:33;;;;;;;6.47;5.80;;;1.50;99.90;;;;;;5010691;28;20176;-74
2023/01/30 12:44:24;;;;;;;9.17;5.63;;;1.50;99.90;;;;;;5017072;28;20798;-74
2023/01/30 12:47:24;;;;;;;6.40;5.23;;;1.50;99.90;;;;;;5009847;28;20182;-75
2023/01/30 12:50:12;;;;;;;8.00;6.30;;;1.40;99.90;;;;;;4999765;28;20666;-75
2023/01/30 12:52:50;;;;;;;6.20;5.60;;;1.40;99.90;;;;;;5012344;28;20174;-74
2023/01/30 12:55:18;;;;;;;10.37;6.87;;;1.40;99.90;;;;;;5014811;28;20245;-74
2023/01/30 12:58:00;;;;;;;8.10;4.77;;;1.40;99.90;;;;;;5016484;28;20645;-74
2023/01/30 13:00:44;;;;;;;8.87;7.33;;;1.40;99.90;;;;;;5010566;28;20269;-73
2023/01/30 13:03:34;;;;;;;9.43;6.90;;;1.30;99.90;;;;;;5013013;28;20173;-75
2023/01/30 13:06:21;;;;;;;7.87;6.27;;;1.30;99.90;;;;;;5006289;28;20211;-76